Time;durP1;ratioP1;P1;durP2;ratioP2;P2;SDS_P1;SDS_P2;PMS_P1;PMS_P2;Temp;Humidity;BMP_temperature;BMP_pressure;BME280_temperature;BME280_humidity;BME280_pressure;Samples;Min_cycle;Max_cycle;Signal;HPM_P1;HPM_P2
2024/02/12 00:02:41;;;;;;;7.07;5.55;;;21.40;45.80;;;;;;10354150;28;20129;-49
2024/02/12 00:07:44;;;;;;;8.00;5.95;;;21.40;45.90;;;;;;10350921;28;20044;-49
2024/02/12 00:12:46;;;;;;;8.63;6.60;;;21.50;45.90;;;;;;10350784;28;20522;-49
2024/02/12 00:17:48;;;;;;;9.18;7.10;;;21.40;45.90;;;;;;10355934;28;20427;-47
2024/02/12 00:22:50;;;;;;;9.15;7.30;;;21.40;45.70;;;;;;10354838;28;20064;-47
2024/02/12 00:27:53;;;;;;;11.23;7.75;;;21.30;45.90;;;;;;10357509;28;20492;-50
2024/02/12 00:32:55;;;;;;;11.52;8.32;;;21.20;45.90;;;;;;10358755;28;20140;-46
2024/02/12 00:37:58;;;;;;;9.57;8.02;;;21.20;45.90;;;;;;10361379;28;20495;-53
2024/02/12 00:42:59;;;;;;;11.35;8.13;;;21.10;46.10;;;;;;10357645;28;20132;-47
2024/02/12 00:48:01;;;;;;;11.18;8.82;;;21.10;46.00;;;;;;10355781;28;20399;-52
2024/02/12 00:53:04;;;;;;;11.02;8.57;;;21.10;45.90;;;;;;10355228;28;20069;-46
2024/02/12 00:58:06;;;;;;;12.75;9.27;;;21.10;46.00;;;;;;10359268;28;20050;-50
2024/02/12 01:03:08;;;;;;;12.65;9.32;;;21.00;46.30;;;;;;10360142;28;20048;-49
2024/02/12 01:08:11;;;;;;;12.02;9.45;;;20.90;46.50;;;;;;10360820;28;20044;-46
2024/02/12 01:13:13;;;;;;;11.60;9.02;;;20.80;46.60;;;;;;10350340;28;20041;-48
2024/02/12 01:18:15;;;;;;;11.38;8.98;;;20.70;46.60;;;;;;10349084;28;20554;-51
2024/02/12 01:23:18;;;;;;;13.85;9.88;;;20.70;46.50;;;;;;10354533;28;20132;-50
2024/02/12 01:28:20;;;;;;;11.88;9.45;;;20.80;46.40;;;;;;10347712;28;20057;-49
2024/02/12 01:33:21;;;;;;;11.68;8.88;;;20.70;46.40;;;;;;10358779;28;20054;-49
2024/02/12 01:38:24;;;;;;;12.52;9.60;;;20.70;46.50;;;;;;10357529;28;20121;-50
2024/02/12 01:43:30;;;;;;;11.35;8.90;;;20.70;46.30;;;;;;10357018;28;20054;-50
2024/02/12 01:48:32;;;;;;;10.70;8.93;;;20.60;46.50;;;;;;10358055;28;20049;-49
2024/02/12 01:53:35;;;;;;;10.80;8.75;;;20.60;46.40;;;;;;10357195;28;20053;-48
2024/02/12 01:58:38;;;;;;;10.27;8.60;;;20.50;46.50;;;;;;10357369;28;20129;-51
2024/02/12 02:03:40;;;;;;;9.77;8.32;;;20.40;46.60;;;;;;10358558;28;20053;-47
2024/02/12 02:08:44;;;;;;;12.32;8.98;;;20.50;46.40;;;;;;10361898;28;20042;-47
2024/02/12 02:13:46;;;;;;;11.27;9.05;;;20.40;46.40;;;;;;10362600;28;20045;-47
2024/02/12 02:18:50;;;;;;;10.75;8.30;;;20.50;46.50;;;;;;10366067;28;20076;-47
2024/02/12 02:23:57;;;;;;;12.32;8.85;;;20.40;46.40;;;;;;10364428;28;20042;-51
2024/02/12 02:29:00;;;;;;;11.60;8.82;;;20.30;46.50;;;;;;10363081;28;20042;-47
2024/02/12 02:34:03;;;;;;;9.75;8.00;;;20.30;46.70;;;;;;10316017;28;20465;-52
2024/02/12 02:39:06;;;;;;;9.80;7.57;;;20.30;46.50;;;;;;10351056;28;20052;-50
2024/02/12 02:44:07;;;;;;;8.77;7.35;;;20.30;46.50;;;;;;10314052;28;20390;-47
2024/02/12 02:49:12;;;;;;;10.52;8.02;;;20.20;46.40;;;;;;10358190;28;20057;-47
2024/02/12 02:54:15;;;;;;;10.07;7.90;;;20.20;47.20;;;;;;10359935;28;20050;-47
2024/02/12 02:59:16;;;;;;;9.25;7.53;;;20.20;46.50;;;;;;10362486;28;20041;-47
2024/02/12 03:04:18;;;;;;;9.38;7.03;;;20.20;46.40;;;;;;10362011;28;20140;-48
2024/02/12 03:09:22;;;;;;;9.70;7.38;;;20.10;46.50;;;;;;10361006;28;20056;-47
2024/02/12 03:14:23;;;;;;;8.25;6.70;;;20.10;46.50;;;;;;10357900;28;20084;-52
2024/02/12 03:19:25;;;;;;;8.70;7.47;;;20.10;46.40;;;;;;10359579;28;20056;-51
2024/02/12 03:24:29;;;;;;;9.27;7.38;;;20.00;46.50;;;;;;10361602;28;20045;-51
2024/02/12 03:29:33;;;;;;;8.98;7.22;;;20.00;46.50;;;;;;10359447;28;20053;-52
2024/02/12 03:34:35;;;;;;;9.57;6.90;;;20.00;46.50;;;;;;10363632;28;20054;-52
2024/02/12 03:39:38;;;;;;;8.95;6.72;;;20.00;46.50;;;;;;10358831;28;20050;-52
2024/02/12 03:44:41;;;;;;;7.97;6.43;;;20.10;46.30;;;;;;10357763;28;20052;-52
2024/02/12 04:00:22;;;;;;;7.13;6.28;;;19.90;46.40;;;;;;10347950;28;20451;-52
2024/02/12 04:05:24;;;;;;;7.93;6.40;;;19.80;46.60;;;;;;10359487;28;20044;-53
2024/02/12 04:10:28;;;;;;;8.57;6.72;;;19.90;46.90;;;;;;10361166;28;20140;-52
2024/02/12 04:15:29;;;;;;;7.82;6.68;;;20.00;47.30;;;;;;10360802;28;20089;-52
2024/02/12 04:20:31;;;;;;;8.85;6.28;;;20.30;46.70;;;;;;10359239;28;20052;-50
2024/02/12 04:25:35;;;;;;;7.38;6.60;;;20.40;46.80;;;;;;10355626;28;20042;-50
2024/02/12 04:30:37;;;;;;;7.30;6.50;;;20.60;47.20;;;;;;10352705;28;20054;-53
2024/02/12 04:35:39;;;;;;;7.00;5.93;;;20.60;47.20;;;;;;10353459;28;20381;-47
2024/02/12 04:40:42;;;;;;;7.53;6.10;;;20.60;47.40;;;;;;10356897;28;20508;-49
2024/02/12 04:45:43;;;;;;;7.85;6.68;;;20.60;47.80;;;;;;10357154;28;20048;-50
2024/02/12 04:50:45;;;;;;;7.22;6.07;;;20.60;47.90;;;;;;10357044;28;20038;-47
2024/02/12 04:55:48;;;;;;;7.55;6.63;;;20.70;48.00;;;;;;10356744;28;20471;-46
2024/02/12 05:00:51;;;;;;;6.75;6.03;;;20.70;47.90;;;;;;10359055;28;20538;-47
2024/02/12 05:05:54;;;;;;;6.90;5.72;;;20.70;47.90;;;;;;10352529;28;20100;-54
2024/02/12 05:10:57;;;;;;;9.27;5.47;;;20.80;47.90;;;;;;10356587;28;20048;-52
2024/02/12 05:15:59;;;;;;;7.35;5.00;;;21.00;47.70;;;;;;10358835;28;20046;-52
2024/02/12 05:26:21;;;;;;;6.57;4.90;;;21.30;47.70;;;;;;10359999;28;20046;-50
2024/02/12 05:31:23;;;;;;;7.57;5.18;;;21.40;47.60;;;;;;10361391;28;20041;-50
2024/02/12 05:36:24;;;;;;;5.70;4.45;;;21.50;47.40;;;;;;10364049;28;20081;-51
2024/02/12 05:41:27;;;;;;;6.80;4.40;;;21.50;47.30;;;;;;10366564;28;21051;-54
2024/02/12 05:46:29;;;;;;;8.52;4.97;;;21.60;47.30;;;;;;10358380;28;20046;-52
2024/02/12 05:51:31;;;;;;;8.48;4.65;;;21.70;49.80;;;;;;10360392;28;20050;-52
2024/02/12 05:56:39;;;;;;;22.70;7.55;;;21.70;49.80;;;;;;10356439;28;20049;-52
2024/02/12 06:01:41;;;;;;;14.60;7.10;;;21.80;50.70;;;;;;10361930;28;20061;-54
2024/02/12 06:06:42;;;;;;;16.52;6.63;;;21.90;50.10;;;;;;10364054;28;20097;-52
2024/02/12 06:11:45;;;;;;;17.25;6.43;;;22.10;50.10;;;;;;10359477;28;20069;-51
2024/02/12 06:16:47;;;;;;;11.93;6.90;;;22.30;49.00;;;;;;10357503;28;20116;-54
2024/02/12 06:21:49;;;;;;;11.30;5.85;;;22.20;49.40;;;;;;10361137;28;20080;-53
2024/02/12 06:26:52;;;;;;;11.75;5.80;;;22.30;49.50;;;;;;10360773;28;20044;-51
2024/02/12 06:31:54;;;;;;;15.32;5.50;;;22.30;49.70;;;;;;10362673;28;20074;-50
2024/02/12 06:36:55;;;;;;;11.15;5.35;;;21.90;50.60;;;;;;10363295;28;20038;-49
2024/02/12 06:41:58;;;;;;;10.95;5.07;;;21.90;50.90;;;;;;10354173;28;20452;-51
2024/02/12 06:47:00;;;;;;;10.55;4.75;;;21.90;51.10;;;;;;10364701;28;20034;-49
2024/02/12 06:52:02;;;;;;;12.35;6.35;;;22.00;50.60;;;;;;10361433;28;20172;-49
2024/02/12 06:57:05;;;;;;;10.65;5.90;;;22.30;49.10;;;;;;10360935;28;20054;-53
2024/02/12 07:02:07;;;;;;;12.57;6.07;;;22.20;49.80;;;;;;10362268;28;20517;-51
2024/02/12 07:07:08;;;;;;;11.93;6.35;;;22.50;49.10;;;;;;10355712;28;20038;-50
2024/02/12 07:12:11;;;;;;;13.48;5.65;;;22.40;49.20;;;;;;10355443;28;20478;-52
2024/02/12 07:17:13;;;;;;;11.88;6.25;;;22.30;48.20;;;;;;10352289;28;20141;-53
2024/02/12 07:22:15;;;;;;;9.77;5.88;;;22.20;48.00;;;;;;10353520;28;20049;-51
2024/02/12 07:27:18;;;;;;;13.32;6.15;;;22.30;47.70;;;;;;10357041;28;20128;-53
2024/02/12 07:32:20;;;;;;;7.82;5.20;;;22.20;47.60;;;;;;10352261;28;20081;-52
2024/02/12 07:37:23;;;;;;;14.32;5.97;;;22.20;47.30;;;;;;10359874;28;20045;-53
2024/02/12 07:42:26;;;;;;;7.20;5.18;;;22.20;46.80;;;;;;10360216;28;20046;-51
2024/02/12 07:47:28;;;;;;;7.63;4.93;;;22.10;46.80;;;;;;10357005;28;20045;-51
2024/02/12 07:52:30;;;;;;;6.75;4.72;;;22.10;46.60;;;;;;10359051;28;20061;-50
2024/02/12 07:57:33;;;;;;;6.40;4.35;;;22.10;46.60;;;;;;10355702;28;20046;-56
2024/02/12 08:02:35;;;;;;;7.40;4.65;;;22.20;46.70;;;;;;10357025;28;20049;-49
2024/02/12 08:07:37;;;;;;;5.65;3.55;;;22.10;46.40;;;;;;10356543;28;20057;-50
2024/02/12 08:12:39;;;;;;;6.22;3.60;;;22.10;46.40;;;;;;10351818;28;20073;-50
2024/02/12 08:17:41;;;;;;;6.03;3.42;;;22.10;46.40;;;;;;10358246;28;20042;-55
2024/02/12 08:22:43;;;;;;;4.90;3.30;;;22.10;46.30;;;;;;10355546;28;20123;-56
2024/02/12 08:27:46;;;;;;;7.05;3.30;;;22.10;46.40;;;;;;10357165;28;20046;-54
2024/02/12 08:32:47;;;;;;;4.75;3.47;;;22.00;46.50;;;;;;10346878;28;20057;-50
2024/02/12 08:37:50;;;;;;;5.07;3.45;;;22.00;46.70;;;;;;10352369;28;20104;-53
2024/02/12 08:42:56;;;;;;;5.95;3.00;;;22.00;46.80;;;;;;10352821;28;20043;-51
2024/02/12 08:47:58;;;;;;;5.70;2.55;;;22.00;47.20;;;;;;10354670;28;20065;-51
2024/02/12 08:52:59;;;;;;;4.50;2.13;;;22.00;48.10;;;;;;10362006;28;20056;-54
2024/02/12 08:58:05;;;;;;;4.00;2.08;;;22.30;47.50;;;;;;10360824;28;20045;-54
2024/02/12 09:03:07;;;;;;;3.00;1.90;;;22.50;47.30;;;;;;10358346;28;20100;-51
2024/02/12 09:08:08;;;;;;;3.35;2.15;;;22.60;47.10;;;;;;10348886;28;20046;-51
2024/02/12 09:13:11;;;;;;;4.78;2.05;;;22.70;46.90;;;;;;10352789;28;20042;-51
2024/02/12 09:18:13;;;;;;;4.00;2.38;;;22.80;46.60;;;;;;10356950;28;20563;-52
2024/02/12 09:23:15;;;;;;;5.40;2.08;;;22.80;46.50;;;;;;10356058;28;20512;-52
2024/02/12 09:28:18;;;;;;;2.72;1.80;;;23.00;46.20;;;;;;10356685;28;20049;-52
2024/02/12 09:33:20;;;;;;;2.50;1.85;;;23.10;46.10;;;;;;10352184;28;20121;-54
2024/02/12 09:38:22;;;;;;;4.68;1.95;;;23.10;45.90;;;;;;10351747;28;20050;-50
2024/02/12 09:43:25;;;;;;;3.50;2.03;;;23.20;45.70;;;;;;10349770;28;20049;-49
2024/02/12 09:48:27;;;;;;;2.70;2.10;;;23.20;45.60;;;;;;10346855;28;20492;-49
2024/02/12 09:53:28;;;;;;;6.35;2.42;;;23.20;45.40;;;;;;10351585;28;20508;-50
2024/02/12 09:58:33;;;;;;;5.15;2.33;;;23.10;45.30;;;;;;10352384;28;20038;-51
2024/02/12 10:03:34;;;;;;;5.05;2.30;;;23.10;45.30;;;;;;10355814;28;20057;-50
2024/02/12 10:08:36;;;;;;;3.30;2.10;;;23.20;45.50;;;;;;10357595;28;20550;-50
2024/02/12 10:13:50;;;;;;;3.60;2.30;;;23.20;46.10;;;;;;10356856;28;20065;-51
2024/02/12 10:18:52;;;;;;;3.90;2.20;;;23.60;45.60;;;;;;10360122;28;20093;-50
2024/02/12 10:23:54;;;;;;;5.15;1.85;;;23.70;45.50;;;;;;10357953;28;20038;-50
2024/02/12 10:28:58;;;;;;;4.18;1.88;;;23.50;46.20;;;;;;10356920;28;20034;-50
2024/02/12 10:33:59;;;;;;;2.78;2.08;;;23.50;46.90;;;;;;10353606;28;20050;-49
2024/02/12 10:39:01;;;;;;;4.03;1.90;;;23.50;46.90;;;;;;10359859;28;20100;-50
2024/02/12 10:44:04;;;;;;;3.58;2.10;;;23.60;46.70;;;;;;10359243;28;20463;-48
2024/02/12 10:49:06;;;;;;;3.83;2.05;;;23.60;46.60;;;;;;10357321;28;20053;-54
2024/02/12 10:54:08;;;;;;;3.50;2.08;;;23.60;46.40;;;;;;10356995;28;20133;-50
2024/02/12 10:59:16;;;;;;;2.20;1.58;;;23.70;46.30;;;;;;10354742;28;20041;-52
2024/02/12 11:04:17;;;;;;;2.78;1.80;;;23.70;46.10;;;;;;10347773;28;20385;-50
2024/02/12 11:09:19;;;;;;;6.65;1.90;;;23.70;46.00;;;;;;10351247;28;20477;-49
2024/02/12 11:14:22;;;;;;;2.35;1.80;;;23.80;45.70;;;;;;10357368;28;20057;-52
2024/02/12 11:19:24;;;;;;;2.45;1.40;;;23.80;45.50;;;;;;10322943;28;20060;-53
2024/02/12 11:24:26;;;;;;;2.17;1.58;;;23.90;45.50;;;;;;10356828;28;20054;-51
2024/02/12 11:29:29;;;;;;;3.97;1.75;;;24.10;45.60;;;;;;10360754;28;20510;-52
2024/02/12 11:34:33;;;;;;;2.58;1.58;;;24.30;45.20;;;;;;10352872;28;20046;-50
2024/02/12 11:39:34;;;;;;;4.88;1.70;;;24.00;46.10;;;;;;10350358;28;20041;-51
2024/02/12 11:44:38;;;;;;;2.47;1.40;;;24.10;45.80;;;;;;10346210;28;20053;-51
2024/02/12 11:49:41;;;;;;;5.10;1.60;;;23.90;46.30;;;;;;10350688;28;20041;-54
2024/02/12 11:54:43;;;;;;;6.90;1.67;;;24.00;46.10;;;;;;10355898;28;20080;-52
2024/02/12 11:59:46;;;;;;;6.30;2.00;;;23.80;46.50;;;;;;10352085;28;20181;-49
2024/02/12 12:04:47;;;;;;;5.80;2.13;;;23.90;46.60;;;;;;10352515;28;20053;-49
2024/02/12 12:09:50;;;;;;;5.68;1.80;;;23.80;46.60;;;;;;10354493;28;20046;-48
2024/02/12 12:14:53;;;;;;;2.05;1.60;;;23.80;46.80;;;;;;10355390;28;20041;-51
2024/02/12 12:19:54;;;;;;;2.42;1.77;;;24.00;46.60;;;;;;10346938;28;20046;-52
2024/02/12 12:24:57;;;;;;;4.88;1.75;;;23.80;46.90;;;;;;10347797;28;20583;-49
2024/02/12 12:30:12;;;;;;;3.95;1.98;;;23.90;46.80;;;;;;10349425;28;20775;-49
2024/02/12 12:35:14;;;;;;;6.88;1.80;;;24.00;46.40;;;;;;10360552;28;20534;-50
2024/02/12 12:40:19;;;;;;;2.90;1.50;;;23.90;46.60;;;;;;10359795;28;20048;-52
2024/02/12 12:45:22;;;;;;;7.03;2.13;;;24.00;46.50;;;;;;10354335;28;20042;-48
2024/02/12 12:50:24;;;;;;;3.47;1.95;;;24.00;46.30;;;;;;10345971;28;20518;-49
2024/02/12 12:55:26;;;;;;;4.57;2.00;;;23.80;46.20;;;;;;10354367;28;20069;-49
2024/02/12 13:00:31;;;;;;;9.38;2.40;;;23.90;45.60;;;;;;10347343;28;20094;-50
2024/02/12 13:05:33;;;;;;;3.72;2.30;;;23.90;45.40;;;;;;10352347;28;20046;-48
2024/02/12 13:10:37;;;;;;;3.65;2.30;;;24.20;44.60;;;;;;10354665;28;20054;-49
2024/02/12 13:15:40;;;;;;;6.03;3.08;;;24.10;44.30;;;;;;10351238;28;20088;-48
2024/02/12 13:20:44;;;;;;;2.42;2.22;;;24.00;44.30;;;;;;10355816;28;20050;-49
2024/02/12 13:25:46;;;;;;;6.68;3.00;;;23.90;44.50;;;;;;10354039;28;20042;-51
2024/02/12 13:30:51;;;;;;;3.30;2.53;;;24.10;43.50;;;;;;10351023;28;20092;-51
2024/02/12 13:35:54;;;;;;;4.47;2.72;;;24.30;43.10;;;;;;10348353;28;20108;-49
2024/02/12 13:40:56;;;;;;;3.92;2.70;;;24.30;42.90;;;;;;10367358;28;20047;-54
2024/02/12 13:46:01;;;;;;;4.95;3.17;;;24.20;42.90;;;;;;10363115;28;20041;-51
2024/02/12 13:51:03;;;;;;;3.40;2.88;;;24.00;42.90;;;;;;10358360;28;20061;-52
2024/02/12 13:56:05;;;;;;;3.88;2.97;;;23.90;42.70;;;;;;10364331;28;20053;-53
2024/02/12 14:01:09;;;;;;;3.03;2.60;;;23.70;42.80;;;;;;10360293;28;20147;-51
2024/02/12 14:06:11;;;;;;;3.55;2.80;;;23.80;42.70;;;;;;10354353;28;20177;-53
2024/02/12 14:11:14;;;;;;;3.15;2.63;;;23.60;42.80;;;;;;10355332;28;20066;-49
2024/02/12 14:16:17;;;;;;;4.65;2.47;;;23.50;42.90;;;;;;10360252;28;20050;-52
2024/02/12 14:21:21;;;;;;;3.35;2.47;;;23.40;43.30;;;;;;10356979;28;20535;-50
2024/02/12 14:26:22;;;;;;;3.97;2.30;;;23.30;43.90;;;;;;10358788;28;20058;-48
2024/02/12 14:31:25;;;;;;;3.70;2.70;;;23.30;43.30;;;;;;10356463;28;20052;-49
2024/02/12 14:36:31;;;;;;;4.43;2.70;;;23.10;42.90;;;;;;10356431;28;20056;-49
2024/02/12 14:41:33;;;;;;;2.83;2.08;;;23.10;43.70;;;;;;10357148;28;20054;-50
2024/02/12 14:46:36;;;;;;;3.25;2.35;;;22.80;45.10;;;;;;10359727;28;20060;-49
2024/02/12 14:51:37;;;;;;;4.45;2.20;;;22.80;45.80;;;;;;10364815;28;20132;-49
2024/02/12 14:56:39;;;;;;;6.47;2.95;;;22.80;45.50;;;;;;10363867;28;20073;-51
2024/02/12 15:01:44;;;;;;;9.05;3.40;;;22.90;46.40;;;;;;10361138;28;20046;-50
2024/02/12 15:06:46;;;;;;;3.85;2.30;;;23.00;45.90;;;;;;10366899;28;20044;-49
2024/02/12 15:11:48;;;;;;;4.60;2.50;;;22.90;45.90;;;;;;10356553;28;20396;-54
2024/02/12 15:16:52;;;;;;;4.00;2.25;;;22.90;45.30;;;;;;10354363;28;20054;-49
2024/02/12 15:21:54;;;;;;;3.45;2.20;;;22.90;45.50;;;;;;10359464;28;20042;-49
2024/02/12 15:26:56;;;;;;;4.75;2.10;;;22.80;45.50;;;;;;10361723;28;20077;-49
2024/02/12 15:31:59;;;;;;;4.55;1.73;;;22.90;46.10;;;;;;10355232;28;20073;-57
2024/02/12 15:37:00;;;;;;;4.70;1.77;;;23.10;46.70;;;;;;10361705;28;20042;-54
2024/02/12 15:42:05;;;;;;;4.32;1.85;;;23.20;47.60;;;;;;10370028;28;20042;-54
2024/02/12 15:47:08;;;;;;;1.65;1.40;;;23.30;48.20;;;;;;10366432;28;20052;-54
2024/02/12 15:52:12;;;;;;;2.45;1.45;;;23.30;49.00;;;;;;10368146;28;20500;-53
2024/02/12 15:57:17;;;;;;;7.05;1.52;;;23.30;48.70;;;;;;10371203;28;20129;-53
2024/02/12 16:02:20;;;;;;;3.50;1.30;;;23.50;49.40;;;;;;10359961;28;20073;-54
2024/02/12 16:07:23;;;;;;;3.35;1.58;;;23.50;50.00;;;;;;10371084;28;20497;-53
2024/02/12 16:12:25;;;;;;;3.42;1.52;;;23.50;50.40;;;;;;10362551;28;20046;-54
2024/02/12 16:17:27;;;;;;;6.78;1.85;;;23.50;49.00;;;;;;10367477;28;20052;-53
2024/02/12 16:22:30;;;;;;;5.78;1.80;;;23.40;48.90;;;;;;10363787;28;20121;-52
2024/02/12 16:27:32;;;;;;;11.70;2.50;;;23.40;49.50;;;;;;10365237;28;20081;-56
2024/02/12 16:32:35;;;;;;;9.30;3.10;;;23.40;50.20;;;;;;10366179;28;20053;-51
2024/02/12 16:37:37;;;;;;;9.60;2.88;;;23.60;50.40;;;;;;10368732;28;20056;-53
2024/02/12 16:42:40;;;;;;;16.38;2.92;;;23.40;50.70;;;;;;10367256;28;20096;-50
2024/02/12 16:47:43;;;;;;;22.23;10.07;;;23.50;50.60;;;;;;10368068;28;20145;-51
2024/02/12 16:52:45;;;;;;;20.05;11.75;;;23.50;50.60;;;;;;10363086;28;20049;-56
2024/02/12 16:57:49;;;;;;;22.02;19.42;;;23.40;51.00;;;;;;10367106;28;20564;-57
2024/02/12 17:02:54;;;;;;;22.25;17.27;;;23.50;51.00;;;;;;10366997;28;20084;-54
2024/02/12 17:07:58;;;;;;;21.10;17.73;;;23.60;51.40;;;;;;10365565;28;20062;-54
2024/02/12 17:12:59;;;;;;;23.45;16.23;;;23.50;50.40;;;;;;10358897;28;20038;-52
2024/02/12 17:18:04;;;;;;;19.48;14.07;;;23.40;50.20;;;;;;10356719;28;20038;-57
2024/02/12 17:23:05;;;;;;;23.40;13.35;;;23.60;50.40;;;;;;10363133;28;20083;-53
2024/02/12 17:28:09;;;;;;;22.90;13.07;;;23.80;50.20;;;;;;10364785;28;20141;-56
2024/02/12 17:33:12;;;;;;;18.27;11.15;;;23.80;50.30;;;;;;10372142;28;20579;-55
2024/02/12 17:38:14;;;;;;;17.17;9.68;;;24.00;49.90;;;;;;10367277;28;20556;-55
2024/02/12 17:43:16;;;;;;;12.80;8.93;;;24.10;49.20;;;;;;10369017;28;20500;-57
2024/02/12 17:48:19;;;;;;;14.85;8.25;;;24.00;48.00;;;;;;10369156;28;20129;-57
2024/02/12 17:53:21;;;;;;;11.07;6.28;;;23.80;48.10;;;;;;10368260;28;20112;-54
2024/02/12 17:58:22;;;;;;;8.52;4.53;;;23.70;48.80;;;;;;10375285;28;20121;-55
2024/02/12 18:03:26;;;;;;;6.47;3.47;;;24.00;48.80;;;;;;10364408;28;20046;-56
2024/02/12 18:08:27;;;;;;;8.57;3.60;;;24.20;48.50;;;;;;10365636;28;20503;-56
2024/02/12 18:13:30;;;;;;;6.93;2.22;;;24.20;48.70;;;;;;10368407;28;20165;-51
2024/02/12 18:18:34;;;;;;;8.80;2.78;;;24.30;48.50;;;;;;10373257;28;20131;-53
2024/02/12 18:23:36;;;;;;;4.97;2.35;;;24.20;47.60;;;;;;10368764;28;20180;-53
2024/02/12 18:28:37;;;;;;;4.63;2.10;;;24.30;47.00;;;;;;10370863;28;21214;-57
2024/02/12 18:33:40;;;;;;;6.63;2.10;;;24.30;47.30;;;;;;10371831;28;20112;-54
2024/02/12 18:38:42;;;;;;;4.72;2.40;;;24.40;46.60;;;;;;10359614;28;20404;-56
2024/02/12 18:43:45;;;;;;;9.57;2.10;;;24.50;46.60;;;;;;10365412;28;20056;-53
2024/02/12 18:48:50;;;;;;;4.70;2.50;;;24.50;46.60;;;;;;10371076;28;20042;-56
2024/02/12 18:53:52;;;;;;;5.38;2.33;;;24.50;45.60;;;;;;10366423;28;20054;-55
2024/02/12 18:58:54;;;;;;;6.95;1.95;;;24.50;45.20;;;;;;10365399;28;20595;-52
2024/02/12 19:04:00;;;;;;;5.53;1.98;;;24.40;45.10;;;;;;10369279;28;20045;-51
2024/02/12 19:09:08;;;;;;;4.57;1.80;;;24.40;45.20;;;;;;10357941;28;20046;-52
2024/02/12 19:14:10;;;;;;;4.15;1.48;;;24.50;45.20;;;;;;10369146;28;20134;-51
2024/02/12 19:19:13;;;;;;;2.97;1.52;;;24.70;45.00;;;;;;10371763;28;20046;-51
2024/02/12 19:24:16;;;;;;;3.10;1.42;;;24.80;44.90;;;;;;10368489;28;20145;-52
2024/02/12 19:29:18;;;;;;;2.53;1.35;;;24.70;45.00;;;;;;10369189;28;20503;-55
2024/02/12 19:34:21;;;;;;;3.65;2.30;;;24.90;44.80;;;;;;10363039;28;20473;-50
2024/02/12 19:39:22;;;;;;;12.02;2.65;;;24.80;44.40;;;;;;10370029;28;20045;-54
2024/02/12 19:44:24;;;;;;;7.45;2.55;;;24.80;45.10;;;;;;10369879;28;20160;-58
2024/02/12 19:49:28;;;;;;;5.78;2.20;;;24.60;45.50;;;;;;10365569;28;20049;-53
2024/02/12 19:54:30;;;;;;;8.35;2.20;;;24.90;44.90;;;;;;10364646;28;20089;-54
2024/02/12 19:59:32;;;;;;;5.63;2.20;;;24.80;44.90;;;;;;10368340;28;20132;-51
2024/02/12 20:04:35;;;;;;;6.65;3.97;;;24.80;45.00;;;;;;10370550;28;20414;-54
2024/02/12 20:09:37;;;;;;;14.00;5.97;;;24.70;45.70;;;;;;10327424;28;20058;-56
2024/02/12 20:14:39;;;;;;;10.32;6.07;;;24.50;45.90;;;;;;10381625;28;20106;-52
2024/02/12 20:19:42;;;;;;;8.98;5.35;;;24.40;46.80;;;;;;10366758;28;20450;-52
2024/02/12 20:24:44;;;;;;;7.60;5.50;;;24.40;47.20;;;;;;10369612;28;20092;-56
2024/02/12 20:29:47;;;;;;;7.55;5.10;;;24.30;47.90;;;;;;10370691;28;20045;-56
2024/02/12 20:34:49;;;;;;;7.05;4.95;;;24.40;47.80;;;;;;10369257;28;20056;-57
2024/02/12 20:39:51;;;;;;;7.80;5.05;;;24.30;48.40;;;;;;10369441;28;20070;-54
2024/02/12 20:44:53;;;;;;;6.25;4.63;;;24.60;47.10;;;;;;10370303;28;20050;-53
2024/02/12 20:49:56;;;;;;;6.80;4.03;;;24.70;46.40;;;;;;10366940;28;20152;-56
2024/02/12 20:55:00;;;;;;;4.35;3.80;;;24.50;46.80;;;;;;10368861;28;20056;-56
2024/02/12 21:00:03;;;;;;;4.72;3.72;;;24.40;47.00;;;;;;10370503;28;20555;-54
2024/02/12 21:05:09;;;;;;;4.90;3.45;;;24.20;47.00;;;;;;10369249;28;20049;-52
2024/02/12 21:10:13;;;;;;;5.82;3.20;;;24.10;47.30;;;;;;10364324;28;20550;-52
2024/02/12 21:15:15;;;;;;;6.60;3.17;;;24.10;47.30;;;;;;10363895;28;20432;-54
2024/02/12 21:20:18;;;;;;;7.75;3.22;;;24.00;47.40;;;;;;10356088;28;20499;-55
2024/02/12 21:25:20;;;;;;;5.95;3.33;;;23.90;47.60;;;;;;10362965;28;20307;-53
2024/02/12 21:30:21;;;;;;;7.97;3.10;;;23.80;47.60;;;;;;10360798;28;20045;-55
2024/02/12 21:35:25;;;;;;;4.38;3.22;;;23.80;47.30;;;;;;10365228;28;20049;-53
2024/02/12 21:40:26;;;;;;;4.97;2.80;;;23.70;47.30;;;;;;10358682;28;20508;-52
2024/02/12 21:45:28;;;;;;;5.13;2.88;;;23.70;47.40;;;;;;10357488;28;20050;-56
2024/02/12 21:50:36;;;;;;;3.28;2.63;;;23.70;47.30;;;;;;10366367;28;20046;-52
2024/02/12 21:55:38;;;;;;;4.22;2.72;;;23.60;47.30;;;;;;10365097;28;20076;-55
2024/02/12 22:00:39;;;;;;;9.70;2.80;;;23.50;47.30;;;;;;10364768;28;20045;-56
2024/02/12 22:05:43;;;;;;;7.07;2.65;;;23.30;47.40;;;;;;10360499;28;20125;-54
2024/02/12 22:10:44;;;;;;;4.00;2.78;;;23.30;47.50;;;;;;10364733;28;20088;-53
2024/02/12 22:15:47;;;;;;;2.92;2.50;;;23.30;47.30;;;;;;10370232;28;20064;-54
2024/02/12 22:20:50;;;;;;;3.50;2.63;;;23.20;47.20;;;;;;10372056;28;20068;-52
2024/02/12 22:25:52;;;;;;;3.88;2.55;;;23.10;47.30;;;;;;10373794;28;20125;-55
2024/02/12 22:30:54;;;;;;;3.25;2.42;;;22.90;47.30;;;;;;10373630;28;20133;-53
2024/02/12 22:35:57;;;;;;;3.47;2.58;;;23.00;47.10;;;;;;10367814;28;20049;-55
2024/02/12 22:40:58;;;;;;;4.60;2.60;;;23.00;47.10;;;;;;10368012;28;20049;-52
2024/02/12 22:46:00;;;;;;;4.18;2.50;;;22.90;47.10;;;;;;10365196;28;20056;-52
2024/02/12 22:51:03;;;;;;;3.45;2.13;;;22.90;47.20;;;;;;10367922;28;20049;-56
2024/02/12 22:56:05;;;;;;;3.65;2.35;;;22.80;47.10;;;;;;10369785;28;20041;-53
2024/02/12 23:01:07;;;;;;;3.28;2.20;;;22.70;47.40;;;;;;10371298;28;20041;-53
2024/02/12 23:06:11;;;;;;;4.10;2.10;;;22.60;47.30;;;;;;10365383;28;20049;-54
2024/02/12 23:11:13;;;;;;;2.70;2.30;;;22.60;47.40;;;;;;10370959;28;20068;-52
2024/02/12 23:16:15;;;;;;;3.50;2.15;;;22.50;47.40;;;;;;10369136;28;20455;-54
2024/02/12 23:21:18;;;;;;;2.67;2.15;;;22.50;47.50;;;;;;10367728;28;20056;-55
2024/02/12 23:26:19;;;;;;;2.38;1.92;;;22.40;47.70;;;;;;10359351;28;20555;-51
2024/02/12 23:31:25;;;;;;;2.90;2.00;;;22.30;47.70;;;;;;10354553;28;20129;-55
2024/02/12 23:36:29;;;;;;;3.75;2.42;;;22.30;47.70;;;;;;10370175;28;20068;-55
2024/02/12 23:41:31;;;;;;;2.83;2.25;;;22.20;47.60;;;;;;10368940;28;20050;-53
2024/02/12 23:46:33;;;;;;;3.45;1.95;;;22.20;47.60;;;;;;10366117;28;20046;-52
2024/02/12 23:51:35;;;;;;;2.97;2.00;;;22.20;47.70;;;;;;10359953;28;20046;-55
2024/02/12 23:56:37;;;;;;;2.45;2.10;;;22.10;47.90;;;;;;10361709;28;20124;-55
